createdAt,value
2023-02-02T00:01:37.162Z,3.60
2023-02-02T00:04:05.465Z,3.70
2023-02-02T00:06:33.857Z,3.70
2023-02-02T00:09:03.149Z,4.40
2023-02-02T00:11:32.439Z,4.60
2023-02-02T00:14:01.104Z,3.60
2023-02-02T00:16:43.693Z,3.50
2023-02-02T00:19:13.583Z,3.07
2023-02-02T00:21:41.927Z,3.07
2023-02-02T00:24:11.471Z,4.17
2023-02-02T00:26:42.750Z,3.67
2023-02-02T00:29:16.375Z,3.07
2023-02-02T00:31:44.284Z,3.60
2023-02-02T00:34:13.097Z,4.13
2023-02-02T00:36:41.064Z,3.53
2023-02-02T00:39:10.461Z,3.00
2023-02-02T00:41:39.715Z,3.67
2023-02-02T00:44:27.282Z,3.50
2023-02-02T00:46:55.208Z,3.37
2023-02-02T00:49:24.272Z,3.33
2023-02-02T00:51:52.290Z,3.87
2023-02-02T00:54:20.269Z,3.50
2023-02-02T00:56:49.581Z,3.10
2023-02-02T00:59:17.542Z,3.47
2023-02-02T01:01:46.769Z,3.37
2023-02-02T01:04:14.822Z,3.30
2023-02-02T01:06:43.109Z,3.17
2023-02-02T01:09:11.111Z,2.90
2023-02-02T01:11:39.080Z,3.87
2023-02-02T01:14:08.350Z,3.63
2023-02-02T01:16:36.267Z,4.10
2023-02-02T01:19:04.532Z,3.63
2023-02-02T01:21:32.640Z,3.50
2023-02-02T01:24:00.541Z,3.97
2023-02-02T01:26:28.573Z,3.60
2023-02-02T01:28:56.636Z,3.73
2023-02-02T01:31:26.196Z,3.80
2023-02-02T01:33:54.279Z,3.90
2023-02-02T01:36:23.707Z,3.53
2023-02-02T01:38:52.421Z,3.57
2023-02-02T01:41:22.156Z,3.53
2023-02-02T01:43:56.279Z,3.27
2023-02-02T01:46:27.590Z,3.90
2023-02-02T01:49:03.652Z,3.50
2023-02-02T01:51:37.247Z,3.67
2023-02-02T01:54:09.410Z,3.23
2023-02-02T01:56:42.315Z,4.17
2023-02-02T01:59:13.007Z,4.40
2023-02-02T02:01:43.675Z,4.23
2023-02-02T02:04:11.898Z,3.73
2023-02-02T02:06:40.091Z,3.30
2023-02-02T02:09:08.878Z,3.70
2023-02-02T02:11:37.557Z,3.70
2023-02-02T02:14:27.648Z,4.00
2023-02-02T02:17:22.223Z,3.80
2023-02-02T02:20:43.158Z,4.03
2023-02-02T02:23:59.723Z,3.50
2023-02-02T02:26:47.691Z,3.30
2023-02-02T02:29:37.324Z,4.23
2023-02-02T02:32:28.205Z,3.67
2023-02-02T02:35:06.174Z,3.70
2023-02-02T02:37:41.491Z,3.40
2023-02-02T02:40:18.679Z,3.50
2023-02-02T02:42:50.851Z,3.83
2023-02-02T02:45:20.526Z,3.73
2023-02-02T02:47:51.231Z,3.63
2023-02-02T02:50:20.068Z,3.80
2023-02-02T02:52:50.671Z,3.90
2023-02-02T02:55:18.924Z,4.43
2023-02-02T02:58:03.800Z,3.90
2023-02-02T03:00:51.667Z,3.93
2023-02-02T03:03:35.666Z,3.87
2023-02-02T03:06:09.214Z,3.93
2023-02-02T03:08:40.980Z,3.90
2023-02-02T03:11:11.186Z,3.70
2023-02-02T03:13:40.688Z,3.60
2023-02-02T03:16:09.897Z,3.53
2023-02-02T03:18:39.945Z,4.03
2023-02-02T03:21:07.923Z,3.23
2023-02-02T03:23:36.079Z,3.70
2023-02-02T03:26:04.494Z,3.57
2023-02-02T03:28:33.434Z,4.53
2023-02-02T03:31:02.912Z,4.47
2023-02-02T03:33:32.893Z,3.33
2023-02-02T03:36:02.168Z,3.17
2023-02-02T03:38:30.057Z,3.40
2023-02-02T03:40:58.303Z,4.23
2023-02-02T03:43:26.660Z,3.20
2023-02-02T03:45:58.357Z,3.33
2023-02-02T03:48:26.822Z,3.60
2023-02-02T03:50:54.753Z,4.00
2023-02-02T03:53:24.161Z,3.47
2023-02-02T03:55:52.045Z,3.67
2023-02-02T03:58:22.144Z,3.87
2023-02-02T04:00:50.673Z,3.90
2023-02-02T04:03:18.679Z,3.30
2023-02-02T04:05:50.565Z,3.70
2023-02-02T04:08:18.448Z,3.83
2023-02-02T04:10:47.716Z,4.23
2023-02-02T04:13:15.700Z,3.50
2023-02-02T04:15:43.800Z,3.23
2023-02-02T04:18:11.766Z,3.17
2023-02-02T04:20:39.847Z,4.00
2023-02-02T04:23:07.788Z,3.50
2023-02-02T04:25:35.760Z,3.77
2023-02-02T04:28:05.539Z,3.33
2023-02-02T04:30:33.530Z,3.47
2023-02-02T04:33:01.420Z,3.47
2023-02-02T04:35:29.334Z,3.90
2023-02-02T04:37:57.467Z,3.60
2023-02-02T04:40:25.688Z,3.57
2023-02-02T04:42:53.720Z,4.03
2023-02-02T04:45:23.223Z,3.30
2023-02-02T04:47:51.973Z,3.90
2023-02-02T04:50:19.969Z,3.60
2023-02-02T04:52:47.843Z,3.40
2023-02-02T04:55:15.832Z,3.83
2023-02-02T04:57:43.982Z,3.57
2023-02-02T05:00:13.291Z,3.23
2023-02-02T05:02:43.527Z,4.03
2023-02-02T05:05:14.392Z,3.63
2023-02-02T05:07:42.300Z,3.33
2023-02-02T05:10:11.675Z,4.20
2023-02-02T05:12:39.593Z,3.67
2023-02-02T05:15:08.451Z,3.47
2023-02-02T05:17:36.389Z,3.43
2023-02-02T05:20:06.139Z,3.80
2023-02-02T05:22:35.180Z,3.80
2023-02-02T05:25:03.330Z,3.53
2023-02-02T05:27:31.209Z,3.33
2023-02-02T05:29:59.197Z,4.00
2023-02-02T05:32:28.005Z,3.63
2023-02-02T05:34:55.990Z,3.40
2023-02-02T05:37:25.245Z,3.13
2023-02-02T05:39:53.725Z,3.40
2023-02-02T05:42:21.747Z,4.43
2023-02-02T05:44:49.645Z,4.20
2023-02-02T05:47:17.697Z,3.67
2023-02-02T05:49:45.575Z,3.67
2023-02-02T05:52:17.658Z,3.43
2023-02-02T05:54:47.180Z,3.57
2023-02-02T05:57:15.126Z,3.57
2023-02-02T05:59:43.095Z,3.27
2023-02-02T06:02:11.019Z,4.23
2023-02-02T06:04:39.043Z,3.77
2023-02-02T06:07:06.975Z,3.73
2023-02-02T06:09:34.903Z,4.07
2023-02-02T06:12:04.611Z,3.47
2023-02-02T06:14:32.902Z,3.60
2023-02-02T06:17:00.826Z,3.50
2023-02-02T06:19:28.836Z,3.60
2023-02-02T06:21:56.755Z,4.00
2023-02-02T06:24:25.147Z,3.40
2023-02-02T06:26:53.065Z,3.63
2023-02-02T06:29:22.619Z,3.53
2023-02-02T06:31:50.572Z,3.47
2023-02-02T06:34:18.852Z,3.97
2023-02-02T06:36:46.707Z,3.60
2023-02-02T06:39:14.649Z,3.93
2023-02-02T06:41:44.736Z,3.60
2023-02-02T06:44:12.630Z,3.50
2023-02-02T06:46:42.193Z,3.60
2023-02-02T06:49:10.159Z,4.77
2023-02-02T06:51:38.041Z,3.30
2023-02-02T06:54:05.995Z,3.23
2023-02-02T06:56:33.974Z,3.30
2023-02-02T06:59:01.890Z,3.77
2023-02-02T07:01:30.012Z,3.20
2023-02-02T07:03:59.409Z,3.77
2023-02-02T07:06:28.669Z,3.40
2023-02-02T07:09:02.746Z,3.47
2023-02-02T07:11:32.996Z,3.23
2023-02-02T07:14:02.815Z,3.07
2023-02-02T07:16:31.067Z,3.20
2023-02-02T07:19:00.404Z,4.17
2023-02-02T07:21:30.076Z,3.30
2023-02-02T07:23:59.037Z,3.47
2023-02-02T07:26:27.704Z,3.47
2023-02-02T07:28:55.638Z,3.63
2023-02-02T07:31:25.770Z,3.20
2023-02-02T07:33:54.587Z,3.10
2023-02-02T07:36:25.427Z,3.33
2023-02-02T07:38:55.135Z,3.03
2023-02-02T07:41:23.120Z,3.87
2023-02-02T07:43:52.025Z,3.47
2023-02-02T07:46:20.859Z,3.33
2023-02-02T07:48:48.835Z,3.67
2023-02-02T07:51:18.534Z,3.87
2023-02-02T07:53:49.613Z,3.33
2023-02-02T07:56:18.908Z,3.20
2023-02-02T07:58:47.184Z,3.50
2023-02-02T08:01:17.396Z,3.57
2023-02-02T08:03:45.760Z,3.70
2023-02-02T08:06:16.801Z,3.23
2023-02-02T08:08:44.993Z,3.73
2023-02-02T08:11:16.187Z,3.60
2023-02-02T08:13:45.048Z,3.43
2023-02-02T08:16:13.582Z,3.50
2023-02-02T08:18:42.290Z,3.47
2023-02-02T08:21:10.948Z,3.87
2023-02-02T08:23:40.407Z,3.00
2023-02-02T08:26:10.901Z,3.20
2023-02-02T08:28:41.403Z,3.13
2023-02-02T08:31:11.591Z,3.30
2023-02-02T08:33:40.132Z,3.37
2023-02-02T08:36:13.371Z,3.20
2023-02-02T08:38:41.810Z,3.00
2023-02-02T08:41:12.299Z,3.20
2023-02-02T08:43:42.346Z,2.97
2023-02-02T08:46:11.722Z,3.03
2023-02-02T08:48:40.322Z,3.10
2023-02-02T08:51:09.678Z,3.10
2023-02-02T08:53:39.094Z,2.90
2023-02-02T08:56:10.318Z,3.00
2023-02-02T08:58:38.299Z,3.40
2023-02-02T09:01:09.576Z,3.00
2023-02-02T09:03:40.051Z,3.27
2023-02-02T09:06:09.701Z,2.83
2023-02-02T09:08:38.291Z,3.07
2023-02-02T09:11:08.091Z,2.97
2023-02-02T09:13:36.239Z,2.73
2023-02-02T09:16:06.766Z,2.77
2023-02-02T09:18:36.112Z,2.70
2023-02-02T09:21:06.447Z,3.27
2023-02-02T09:23:35.748Z,2.53
2023-02-02T09:26:11.284Z,2.40
2023-02-02T09:28:39.611Z,2.87
2023-02-02T09:31:08.483Z,2.50
2023-02-02T09:33:38.372Z,2.30
2023-02-02T09:36:08.706Z,3.10
2023-02-02T09:38:36.997Z,3.40
2023-02-02T09:41:29.157Z,3.43
2023-02-02T09:44:07.003Z,2.60
2023-02-02T09:46:48.903Z,2.40
2023-02-02T09:49:23.560Z,2.60
2023-02-02T09:51:58.168Z,2.90
2023-02-02T09:54:32.296Z,3.30
2023-02-02T09:57:03.167Z,2.60
2023-02-02T09:59:36.053Z,3.93
2023-02-02T10:02:10.991Z,2.50
2023-02-02T10:04:42.805Z,2.93
2023-02-02T10:07:17.853Z,2.90
2023-02-02T10:09:50.364Z,2.70
2023-02-02T10:12:30.984Z,2.60
2023-02-02T10:15:06.282Z,2.60
2023-02-02T10:17:41.350Z,2.63
2023-02-02T10:20:30.351Z,2.53
2023-02-02T10:23:04.857Z,2.60
2023-02-02T10:25:36.290Z,3.03
2023-02-02T10:28:12.572Z,2.87
2023-02-02T10:30:47.116Z,3.20
2023-02-02T10:33:25.039Z,2.70
2023-02-02T10:36:00.952Z,3.30
2023-02-02T10:38:39.626Z,2.90
2023-02-02T10:41:15.486Z,3.10
2023-02-02T10:44:04.927Z,2.77
2023-02-02T10:46:37.720Z,2.50
2023-02-02T10:49:17.940Z,2.50
2023-02-02T10:51:52.969Z,2.90
2023-02-02T10:54:54.958Z,2.73
2023-02-02T10:57:35.329Z,3.13
2023-02-02T11:00:10.143Z,2.50
2023-02-02T11:02:38.118Z,2.57
2023-02-02T11:05:24.404Z,2.80
2023-02-02T11:07:55.390Z,2.87
2023-02-02T11:10:23.673Z,2.40
2023-02-02T11:12:53.595Z,2.70
2023-02-02T11:15:27.497Z,3.27
2023-02-02T11:17:55.525Z,3.00
2023-02-02T11:20:31.803Z,2.33
2023-02-02T11:23:07.401Z,2.77
2023-02-02T11:25:37.705Z,2.73
2023-02-02T11:28:13.662Z,3.00
2023-02-02T11:30:42.144Z,2.83
2023-02-02T11:33:28.994Z,2.40
2023-02-02T11:35:58.634Z,3.00
2023-02-02T11:38:28.556Z,2.90
2023-02-02T11:41:03.619Z,2.53
2023-02-02T11:43:34.178Z,2.57
2023-02-02T11:46:04.536Z,3.23
2023-02-02T11:48:36.419Z,3.60
2023-02-02T11:51:05.480Z,3.30
2023-02-02T11:53:37.730Z,3.33
2023-02-02T11:56:09.673Z,2.90
2023-02-02T11:58:56.488Z,3.07
2023-02-02T12:01:28.898Z,2.90
2023-02-02T12:03:58.719Z,3.03
2023-02-02T12:06:28.506Z,2.90
2023-02-02T12:09:01.229Z,3.07
2023-02-02T12:11:49.495Z,3.07
2023-02-02T12:14:31.490Z,2.87
2023-02-02T12:17:12.071Z,3.10
2023-02-02T12:20:11.323Z,2.70
2023-02-02T12:23:05.359Z,3.00
2023-02-02T12:25:54.254Z,3.03
2023-02-02T12:28:35.857Z,2.97
2023-02-02T12:31:11.168Z,2.80
2023-02-02T12:33:47.114Z,3.03
2023-02-02T12:36:28.954Z,3.03
2023-02-02T12:39:21.127Z,3.40
2023-02-02T12:42:16.494Z,2.70
2023-02-02T12:44:53.944Z,3.20
2023-02-02T12:47:26.878Z,2.83
2023-02-02T12:50:06.135Z,3.17
2023-02-02T12:52:48.045Z,3.10
2023-02-02T12:55:23.396Z,3.00
2023-02-02T12:58:06.336Z,3.00
2023-02-02T13:01:03.371Z,2.70
2023-02-02T13:03:44.365Z,3.20
2023-02-02T13:06:44.757Z,3.27
2023-02-02T13:09:38.482Z,3.47
2023-02-02T13:12:09.305Z,3.07
2023-02-02T13:14:41.903Z,2.70
2023-02-02T13:17:16.143Z,3.17
2023-02-02T13:19:47.972Z,2.67
2023-02-02T13:22:20.975Z,2.70
2023-02-02T13:24:54.962Z,2.33
2023-02-02T13:27:24.427Z,2.67
2023-02-02T13:29:56.681Z,2.60
2023-02-02T13:32:29.835Z,2.60
2023-02-02T13:35:02.779Z,2.97
2023-02-02T13:37:37.711Z,2.60
2023-02-02T13:40:19.546Z,2.63
2023-02-02T13:42:53.640Z,2.63
2023-02-02T13:45:36.671Z,2.53
2023-02-02T13:48:15.605Z,3.10
2023-02-02T13:50:54.520Z,2.50
2023-02-02T13:53:47.456Z,2.80
2023-02-02T13:56:39.723Z,2.97
2023-02-02T13:59:23.780Z,2.93
2023-02-02T14:01:53.296Z,2.63
2023-02-02T14:04:23.584Z,3.00
2023-02-02T14:06:57.238Z,2.83
2023-02-02T14:09:28.283Z,3.20
2023-02-02T14:12:00.798Z,2.90
2023-02-02T14:14:35.619Z,3.27
2023-02-02T14:17:06.817Z,3.40
2023-02-02T14:19:53.027Z,2.90
2023-02-02T14:22:37.295Z,3.17
2023-02-02T14:25:36.814Z,3.00
2023-02-02T14:28:11.505Z,3.57
2023-02-02T14:30:40.785Z,3.30
2023-02-02T14:33:39.684Z,3.10
2023-02-02T14:36:14.972Z,3.13
2023-02-02T14:39:05.306Z,3.10
2023-02-02T14:42:09.788Z,3.40
2023-02-02T14:45:08.417Z,2.87
2023-02-02T14:47:59.695Z,3.50
2023-02-02T14:50:36.665Z,3.93
2023-02-02T14:53:08.448Z,3.50
2023-02-02T14:55:39.285Z,3.10
2023-02-02T14:58:08.433Z,3.40
2023-02-02T15:00:37.707Z,3.47
2023-02-02T15:03:35.203Z,3.83
2023-02-02T15:06:08.570Z,3.13
2023-02-02T15:08:36.584Z,3.80
2023-02-02T15:11:29.858Z,3.43
2023-02-02T15:14:07.161Z,2.83
2023-02-02T15:16:39.359Z,3.33
2023-02-02T15:19:14.977Z,3.40
2023-02-02T15:21:45.545Z,3.87
2023-02-02T15:24:21.671Z,3.00
2023-02-02T15:26:50.587Z,3.43
2023-02-02T15:29:24.947Z,3.70
2023-02-02T15:31:55.822Z,3.53
2023-02-02T15:34:27.143Z,3.90
2023-02-02T15:36:57.583Z,3.77
2023-02-02T15:39:30.858Z,4.20
2023-02-02T15:42:19.276Z,3.77
2023-02-02T15:44:47.240Z,3.60
2023-02-02T15:47:20.120Z,3.97
2023-02-02T15:49:48.577Z,4.43
2023-02-02T15:52:22.970Z,4.40
2023-02-02T15:54:53.744Z,3.90
2023-02-02T15:57:31.350Z,4.20
2023-02-02T16:00:00.449Z,4.13
2023-02-02T16:02:37.085Z,3.70
2023-02-02T16:05:25.012Z,3.43
2023-02-02T16:08:05.114Z,3.63
2023-02-02T16:10:34.307Z,4.40
2023-02-02T16:13:02.527Z,4.23
2023-02-02T16:15:31.836Z,4.83
2023-02-02T16:18:02.144Z,5.20
2023-02-02T16:20:32.957Z,4.70
2023-02-02T16:23:04.729Z,5.47
2023-02-02T16:25:35.480Z,5.10
2023-02-02T16:28:03.786Z,5.07
2023-02-02T16:30:35.509Z,4.93
2023-02-02T16:33:28.994Z,5.70
2023-02-02T16:35:57.387Z,5.20
2023-02-02T16:38:27.046Z,4.60
2023-02-02T16:41:06.193Z,5.50
2023-02-02T16:43:35.154Z,5.27
2023-02-02T16:46:06.886Z,4.97
2023-02-02T16:48:38.160Z,4.60
2023-02-02T16:51:27.996Z,5.10
2023-02-02T16:54:01.895Z,5.00
2023-02-02T16:56:36.461Z,4.67
2023-02-02T16:59:09.430Z,4.90
2023-02-02T17:01:40.629Z,4.57
2023-02-02T17:04:22.542Z,3.80
2023-02-02T17:06:53.074Z,4.33
2023-02-02T17:09:34.584Z,4.83
2023-02-02T17:12:09.377Z,4.70
2023-02-02T17:14:52.526Z,4.40
2023-02-02T17:17:20.482Z,4.23
2023-02-02T17:19:49.772Z,4.17
2023-02-02T17:22:20.481Z,3.73
2023-02-02T17:24:51.649Z,4.30
2023-02-02T17:27:24.493Z,4.40
2023-02-02T17:29:52.858Z,4.30
2023-02-02T17:32:20.868Z,4.50
2023-02-02T17:34:50.076Z,4.77
2023-02-02T17:37:18.148Z,4.67
2023-02-02T17:39:46.075Z,5.07
2023-02-02T17:42:23.791Z,5.50
2023-02-02T17:44:51.708Z,5.50
2023-02-02T17:47:19.711Z,5.53
2023-02-02T17:49:47.636Z,5.50
2023-02-02T17:52:16.864Z,5.17
2023-02-02T17:54:44.853Z,5.77
2023-02-02T17:57:12.760Z,5.60
2023-02-02T17:59:40.624Z,6.60
2023-02-02T18:02:11.039Z,6.50
2023-02-02T18:04:38.924Z,6.63
2023-02-02T18:07:07.492Z,6.67
2023-02-02T18:09:36.817Z,7.03
2023-02-02T18:12:04.936Z,7.37
2023-02-02T18:14:32.793Z,6.73
2023-02-02T18:17:00.688Z,6.93
2023-02-02T18:19:28.734Z,6.70
2023-02-02T18:21:56.721Z,7.20
2023-02-02T18:24:24.589Z,7.20
2023-02-02T18:26:53.830Z,6.80
2023-02-02T18:29:21.703Z,7.13
2023-02-02T18:31:49.709Z,6.70
2023-02-02T18:34:17.635Z,6.30
2023-02-02T18:36:45.505Z,6.30
2023-02-02T18:39:13.382Z,6.53
2023-02-02T18:41:41.250Z,6.40
2023-02-02T18:44:10.554Z,6.80
2023-02-02T18:46:38.460Z,6.53
2023-02-02T18:49:06.345Z,6.80
2023-02-02T18:51:34.324Z,6.30
2023-02-02T18:54:02.244Z,6.17
2023-02-02T18:56:30.913Z,7.07
2023-02-02T18:58:59.479Z,6.80
2023-02-02T19:01:28.860Z,5.93
2023-02-02T19:03:57.977Z,6.07
2023-02-02T19:06:44.059Z,7.17
2023-02-02T19:09:13.636Z,6.97
2023-02-02T19:11:44.487Z,6.77
2023-02-02T19:14:15.088Z,6.90
2023-02-02T19:16:46.163Z,6.97
2023-02-02T19:19:22.859Z,7.33
2023-02-02T19:21:53.038Z,7.13
2023-02-02T19:24:21.055Z,6.90
2023-02-02T19:26:50.495Z,6.67
2023-02-02T19:29:20.665Z,7.13
2023-02-02T19:31:54.568Z,7.50
2023-02-02T19:34:23.957Z,7.60
2023-02-02T19:36:52.240Z,7.00
2023-02-02T19:39:23.914Z,7.47
2023-02-02T19:41:55.101Z,7.47
2023-02-02T19:44:24.792Z,7.30
2023-02-02T19:46:56.682Z,8.13
2023-02-02T19:49:29.380Z,6.83
2023-02-02T19:51:58.268Z,7.27
2023-02-02T19:54:33.483Z,7.27
2023-02-02T19:57:06.985Z,6.90
2023-02-02T19:59:36.209Z,7.10
2023-02-02T20:02:33.410Z,6.50
2023-02-02T20:05:04.705Z,6.20
2023-02-02T20:07:32.572Z,7.10
2023-02-02T20:10:12.094Z,7.30
2023-02-02T20:12:39.979Z,7.33
2023-02-02T20:15:25.383Z,7.53
2023-02-02T20:17:58.102Z,7.87
2023-02-02T20:20:28.012Z,8.03
2023-02-02T20:22:57.565Z,7.97
2023-02-02T20:25:25.541Z,9.37
2023-02-02T20:27:53.572Z,7.93
2023-02-02T20:30:25.633Z,7.93
2023-02-02T20:32:58.118Z,9.13
2023-02-02T20:35:35.806Z,9.67
2023-02-02T20:38:14.201Z,8.50
2023-02-02T20:40:42.091Z,9.83
2023-02-02T20:43:09.959Z,9.17
2023-02-02T20:45:37.887Z,10.03
2023-02-02T20:48:08.874Z,9.23
2023-02-02T20:50:36.789Z,8.63
2023-02-02T20:53:04.787Z,9.13
2023-02-02T20:55:35.947Z,9.10
2023-02-02T20:58:04.324Z,8.37
2023-02-02T21:00:33.266Z,8.43
2023-02-02T21:03:01.172Z,8.30
2023-02-02T21:05:30.905Z,9.00
2023-02-02T21:07:58.827Z,8.17
2023-02-02T21:10:27.956Z,8.67
2023-02-02T21:12:56.076Z,7.70
2023-02-02T21:15:25.526Z,7.80
2023-02-02T21:17:53.430Z,7.83
2023-02-02T21:20:21.451Z,7.60
2023-02-02T21:22:50.685Z,7.37
2023-02-02T21:25:18.736Z,7.43
2023-02-02T21:27:57.671Z,8.13
2023-02-02T21:30:25.808Z,7.93
2023-02-02T21:32:53.971Z,7.20
2023-02-02T21:35:21.981Z,7.10
2023-02-02T21:37:56.336Z,6.70
2023-02-02T21:40:29.576Z,7.33
2023-02-02T21:43:00.312Z,6.60
2023-02-02T21:45:35.260Z,6.87
2023-02-02T21:48:06.603Z,6.70
2023-02-02T21:50:37.647Z,6.63
2023-02-02T21:53:19.797Z,7.13
2023-02-02T21:55:52.295Z,6.60
2023-02-02T21:58:24.782Z,6.00
2023-02-02T22:00:53.486Z,6.33
2023-02-02T22:03:28.982Z,5.63
2023-02-02T22:06:30.045Z,6.40
2023-02-02T22:09:08.518Z,5.93
2023-02-02T22:11:44.567Z,6.17
2023-02-02T22:14:19.267Z,5.77
2023-02-02T22:16:50.201Z,6.37
2023-02-02T22:19:26.980Z,5.70
2023-02-02T22:21:55.459Z,5.63
2023-02-02T22:24:26.270Z,6.43
2023-02-02T22:26:54.189Z,5.57
2023-02-02T22:29:24.395Z,4.90
2023-02-02T22:31:52.384Z,5.60
2023-02-02T22:34:20.279Z,4.87
2023-02-02T22:36:48.154Z,5.10
2023-02-02T22:39:16.076Z,5.40
2023-02-02T22:41:45.295Z,5.63
2023-02-02T22:44:13.185Z,4.73
2023-02-02T22:46:41.119Z,5.50
2023-02-02T22:49:09.054Z,5.50
2023-02-02T22:51:36.913Z,5.67
2023-02-02T22:54:04.891Z,5.40
2023-02-02T22:56:32.910Z,5.50
2023-02-02T22:59:03.383Z,5.20
2023-02-02T23:01:31.287Z,5.63
2023-02-02T23:03:59.270Z,6.10
2023-02-02T23:06:27.168Z,6.00
2023-02-02T23:08:55.068Z,5.50
2023-02-02T23:11:22.937Z,6.67
2023-02-02T23:13:51.253Z,5.93
2023-02-02T23:16:20.613Z,6.33
2023-02-02T23:18:48.572Z,5.97
2023-02-02T23:21:17.394Z,6.63
2023-02-02T23:23:45.293Z,6.70
2023-02-02T23:26:13.184Z,6.37
2023-02-02T23:28:41.063Z,6.50
2023-02-02T23:31:09.049Z,6.77
2023-02-02T23:33:38.377Z,7.47
2023-02-02T23:36:06.938Z,7.50
2023-02-02T23:38:34.887Z,7.17
2023-02-02T23:41:02.745Z,7.47
2023-02-02T23:43:30.661Z,7.30
2023-02-02T23:45:58.728Z,6.93
2023-02-02T23:48:26.717Z,7.70
2023-02-02T23:50:56.112Z,7.53
2023-02-02T23:53:24.876Z,7.23
2023-02-02T23:55:52.876Z,7.07
2023-02-02T23:58:21.426Z,7.80
